sensor_id;sensor_type;location;lat;lon;timestamp;P1;durP1;ratioP1;P2;durP2;ratioP2
23745;SDS011;12053;48.878;9.632;2023-06-22T00:00:03;12.73;;;8.68;;
23745;SDS011;12053;48.878;9.632;2023-06-22T00:05:03;13.60;;;9.20;;
23745;SDS011;12053;48.878;9.632;2023-06-22T00:07:30;11.65;;;8.68;;
23745;SDS011;12053;48.878;9.632;2023-06-22T00:09:57;15.68;;;8.98;;
23745;SDS011;12053;48.878;9.632;2023-06-22T00:12:24;12.75;;;8.80;;
23745;SDS011;12053;48.878;9.632;2023-06-22T00:14:52;11.80;;;9.40;;
23745;SDS011;12053;48.878;9.632;2023-06-22T00:17:19;11.40;;;9.25;;
23745;SDS011;12053;48.878;9.632;2023-06-22T00:19:46;10.88;;;8.68;;
23745;SDS011;12053;48.878;9.632;2023-06-22T00:22:14;15.80;;;9.57;;
23745;SDS011;12053;48.878;9.632;2023-06-22T00:24:43;12.75;;;8.95;;
23745;SDS011;12053;48.878;9.632;2023-06-22T00:27:10;10.95;;;9.07;;
23745;SDS011;12053;48.878;9.632;2023-06-22T00:29:37;12.82;;;8.68;;
23745;SDS011;12053;48.878;9.632;2023-06-22T00:32:05;13.35;;;9.48;;
23745;SDS011;12053;48.878;9.632;2023-06-22T00:34:32;13.80;;;9.32;;
23745;SDS011;12053;48.878;9.632;2023-06-22T00:36:59;11.38;;;8.85;;
23745;SDS011;12053;48.878;9.632;2023-06-22T00:39:26;13.15;;;9.68;;
23745;SDS011;12053;48.878;9.632;2023-06-22T00:41:54;13.40;;;8.30;;
23745;SDS011;12053;48.878;9.632;2023-06-22T00:44:22;10.60;;;8.52;;
23745;SDS011;12053;48.878;9.632;2023-06-22T00:46:49;10.43;;;8.45;;
23745;SDS011;12053;48.878;9.632;2023-06-22T00:49:16;12.32;;;8.82;;
23745;SDS011;12053;48.878;9.632;2023-06-22T00:51:44;11.27;;;9.27;;
23745;SDS011;12053;48.878;9.632;2023-06-22T00:54:12;12.45;;;9.25;;
23745;SDS011;12053;48.878;9.632;2023-06-22T00:56:42;12.82;;;8.95;;
23745;SDS011;12053;48.878;9.632;2023-06-22T00:59:09;10.82;;;8.60;;
23745;SDS011;12053;48.878;9.632;2023-06-22T01:01:38;12.73;;;9.10;;
23745;SDS011;12053;48.878;9.632;2023-06-22T01:04:07;9.32;;;8.27;;
23745;SDS011;12053;48.878;9.632;2023-06-22T01:06:35;11.68;;;8.43;;
23745;SDS011;12053;48.878;9.632;2023-06-22T01:09:12;11.02;;;8.77;;
23745;SDS011;12053;48.878;9.632;2023-06-22T01:11:44;11.45;;;9.98;;
23745;SDS011;12053;48.878;9.632;2023-06-22T01:14:15;11.27;;;9.18;;
23745;SDS011;12053;48.878;9.632;2023-06-22T01:16:43;11.68;;;10.20;;
23745;SDS011;12053;48.878;9.632;2023-06-22T01:19:54;11.98;;;8.98;;
23745;SDS011;12053;48.878;9.632;2023-06-22T01:22:02;13.68;;;9.25;;
23745;SDS011;12053;48.878;9.632;2023-06-22T01:24:32;12.38;;;9.02;;
23745;SDS011;12053;48.878;9.632;2023-06-22T01:29:50;11.00;;;8.82;;
23745;SDS011;12053;48.878;9.632;2023-06-22T01:32:18;14.50;;;9.85;;
23745;SDS011;12053;48.878;9.632;2023-06-22T01:34:46;12.52;;;8.88;;
23745;SDS011;12053;48.878;9.632;2023-06-22T01:37:14;10.27;;;9.05;;
23745;SDS011;12053;48.878;9.632;2023-06-22T01:39:42;13.05;;;8.80;;
23745;SDS011;12053;48.878;9.632;2023-06-22T01:42:09;12.85;;;8.80;;
23745;SDS011;12053;48.878;9.632;2023-06-22T01:44:36;11.07;;;8.43;;
23745;SDS011;12053;48.878;9.632;2023-06-22T01:47:04;11.80;;;9.15;;
23745;SDS011;12053;48.878;9.632;2023-06-22T01:49:32;11.20;;;8.88;;
23745;SDS011;12053;48.878;9.632;2023-06-22T01:51:59;13.32;;;9.02;;
23745;SDS011;12053;48.878;9.632;2023-06-22T01:54:26;12.85;;;9.60;;
23745;SDS011;12053;48.878;9.632;2023-06-22T01:56:53;14.43;;;8.50;;
23745;SDS011;12053;48.878;9.632;2023-06-22T01:59:44;11.27;;;8.75;;
23745;SDS011;12053;48.878;9.632;2023-06-22T02:02:10;11.25;;;9.00;;
23745;SDS011;12053;48.878;9.632;2023-06-22T02:04:41;10.68;;;8.23;;
23745;SDS011;12053;48.878;9.632;2023-06-22T02:07:12;11.27;;;8.82;;
23745;SDS011;12053;48.878;9.632;2023-06-22T02:09:40;10.35;;;9.15;;
23745;SDS011;12053;48.878;9.632;2023-06-22T02:12:10;11.07;;;8.68;;
23745;SDS011;12053;48.878;9.632;2023-06-22T02:14:39;12.20;;;9.02;;
23745;SDS011;12053;48.878;9.632;2023-06-22T02:17:07;15.13;;;8.98;;
23745;SDS011;12053;48.878;9.632;2023-06-22T02:19:39;14.38;;;9.60;;
23745;SDS011;12053;48.878;9.632;2023-06-22T02:22:07;15.02;;;9.38;;
23745;SDS011;12053;48.878;9.632;2023-06-22T02:24:35;14.15;;;9.27;;
23745;SDS011;12053;48.878;9.632;2023-06-22T02:27:02;11.50;;;8.60;;
23745;SDS011;12053;48.878;9.632;2023-06-22T02:29:29;15.00;;;9.45;;
23745;SDS011;12053;48.878;9.632;2023-06-22T02:31:56;12.68;;;9.00;;
23745;SDS011;12053;48.878;9.632;2023-06-22T02:34:24;11.48;;;8.70;;
23745;SDS011;12053;48.878;9.632;2023-06-22T02:36:51;13.43;;;9.45;;
23745;SDS011;12053;48.878;9.632;2023-06-22T02:39:22;13.65;;;9.70;;
23745;SDS011;12053;48.878;9.632;2023-06-22T02:41:50;13.32;;;9.57;;
23745;SDS011;12053;48.878;9.632;2023-06-22T02:44:17;13.10;;;10.23;;
23745;SDS011;12053;48.878;9.632;2023-06-22T02:46:44;13.82;;;10.48;;
23745;SDS011;12053;48.878;9.632;2023-06-22T02:49:12;14.98;;;10.05;;
23745;SDS011;12053;48.878;9.632;2023-06-22T02:51:45;11.45;;;9.93;;
23745;SDS011;12053;48.878;9.632;2023-06-22T02:54:12;11.48;;;9.82;;
23745;SDS011;12053;48.878;9.632;2023-06-22T02:56:39;16.90;;;10.48;;
23745;SDS011;12053;48.878;9.632;2023-06-22T02:59:10;14.98;;;10.75;;
23745;SDS011;12053;48.878;9.632;2023-06-22T03:01:37;12.80;;;9.80;;
23745;SDS011;12053;48.878;9.632;2023-06-22T03:04:07;13.25;;;10.55;;
23745;SDS011;12053;48.878;9.632;2023-06-22T03:06:35;16.25;;;11.35;;
23745;SDS011;12053;48.878;9.632;2023-06-22T03:09:03;15.05;;;10.70;;
23745;SDS011;12053;48.878;9.632;2023-06-22T03:11:31;14.45;;;12.35;;
23745;SDS011;12053;48.878;9.632;2023-06-22T03:13:59;17.45;;;12.45;;
23745;SDS011;12053;48.878;9.632;2023-06-22T03:16:26;13.50;;;11.05;;
23745;SDS011;12053;48.878;9.632;2023-06-22T03:18:53;17.65;;;12.68;;
23745;SDS011;12053;48.878;9.632;2023-06-22T03:21:23;16.23;;;12.57;;
23745;SDS011;12053;48.878;9.632;2023-06-22T03:23:51;16.63;;;12.10;;
23745;SDS011;12053;48.878;9.632;2023-06-22T03:26:18;17.77;;;13.80;;
23745;SDS011;12053;48.878;9.632;2023-06-22T03:28:46;17.92;;;12.52;;
23745;SDS011;12053;48.878;9.632;2023-06-22T03:31:13;17.45;;;13.45;;
23745;SDS011;12053;48.878;9.632;2023-06-22T03:33:40;17.83;;;13.75;;
23745;SDS011;12053;48.878;9.632;2023-06-22T03:36:07;19.25;;;13.52;;
23745;SDS011;12053;48.878;9.632;2023-06-22T03:38:34;16.98;;;13.63;;
23745;SDS011;12053;48.878;9.632;2023-06-22T03:41:02;19.17;;;14.57;;
23745;SDS011;12053;48.878;9.632;2023-06-22T03:43:29;18.13;;;14.25;;
23745;SDS011;12053;48.878;9.632;2023-06-22T03:45:56;17.25;;;14.13;;
23745;SDS011;12053;48.878;9.632;2023-06-22T03:48:23;18.23;;;13.68;;
23745;SDS011;12053;48.878;9.632;2023-06-22T03:50:51;17.73;;;13.38;;
23745;SDS011;12053;48.878;9.632;2023-06-22T03:53:18;19.15;;;14.32;;
23745;SDS011;12053;48.878;9.632;2023-06-22T03:55:49;17.27;;;14.18;;
23745;SDS011;12053;48.878;9.632;2023-06-22T03:58:17;19.10;;;14.70;;
23745;SDS011;12053;48.878;9.632;2023-06-22T04:00:49;18.90;;;14.73;;
23745;SDS011;12053;48.878;9.632;2023-06-22T04:03:17;17.63;;;14.73;;
23745;SDS011;12053;48.878;9.632;2023-06-22T04:05:47;19.42;;;14.38;;
23745;SDS011;12053;48.878;9.632;2023-06-22T04:08:15;18.58;;;13.93;;
23745;SDS011;12053;48.878;9.632;2023-06-22T04:10:42;16.83;;;13.88;;
23745;SDS011;12053;48.878;9.632;2023-06-22T04:13:10;15.30;;;13.35;;
23745;SDS011;12053;48.878;9.632;2023-06-22T04:15:37;18.15;;;14.23;;
23745;SDS011;12053;48.878;9.632;2023-06-22T04:18:04;19.38;;;13.40;;
23745;SDS011;12053;48.878;9.632;2023-06-22T04:20:31;20.15;;;13.32;;
23745;SDS011;12053;48.878;9.632;2023-06-22T04:22:59;18.80;;;12.95;;
23745;SDS011;12053;48.878;9.632;2023-06-22T04:25:26;17.52;;;13.32;;
23745;SDS011;12053;48.878;9.632;2023-06-22T04:27:54;20.20;;;13.65;;
23745;SDS011;12053;48.878;9.632;2023-06-22T04:30:21;21.95;;;12.40;;
23745;SDS011;12053;48.878;9.632;2023-06-22T04:32:48;14.65;;;12.93;;
23745;SDS011;12053;48.878;9.632;2023-06-22T04:35:22;19.48;;;12.65;;
23745;SDS011;12053;48.878;9.632;2023-06-22T04:37:50;16.75;;;12.50;;
23745;SDS011;12053;48.878;9.632;2023-06-22T04:40:21;16.17;;;11.98;;
23745;SDS011;12053;48.878;9.632;2023-06-22T04:42:49;14.05;;;12.35;;
23745;SDS011;12053;48.878;9.632;2023-06-22T04:45:20;20.42;;;13.30;;
23745;SDS011;12053;48.878;9.632;2023-06-22T04:47:47;16.35;;;12.35;;
23745;SDS011;12053;48.878;9.632;2023-06-22T04:50:15;19.85;;;12.75;;
23745;SDS011;12053;48.878;9.632;2023-06-22T04:52:43;15.43;;;11.63;;
23745;SDS011;12053;48.878;9.632;2023-06-22T04:55:11;16.00;;;12.18;;
23745;SDS011;12053;48.878;9.632;2023-06-22T04:57:41;15.02;;;11.65;;
23745;SDS011;12053;48.878;9.632;2023-06-22T05:00:11;13.43;;;11.02;;
23745;SDS011;12053;48.878;9.632;2023-06-22T05:02:39;13.98;;;11.52;;
23745;SDS011;12053;48.878;9.632;2023-06-22T05:05:07;13.35;;;11.20;;
23745;SDS011;12053;48.878;9.632;2023-06-22T05:07:35;15.55;;;10.90;;
23745;SDS011;12053;48.878;9.632;2023-06-22T05:10:02;12.70;;;10.25;;
23745;SDS011;12053;48.878;9.632;2023-06-22T05:12:30;15.57;;;10.80;;
23745;SDS011;12053;48.878;9.632;2023-06-22T05:14:57;13.25;;;10.15;;
23745;SDS011;12053;48.878;9.632;2023-06-22T05:17:25;13.38;;;9.32;;
23745;SDS011;12053;48.878;9.632;2023-06-22T05:19:52;14.15;;;9.23;;
23745;SDS011;12053;48.878;9.632;2023-06-22T05:22:20;16.27;;;9.23;;
23745;SDS011;12053;48.878;9.632;2023-06-22T05:24:47;11.75;;;9.52;;
23745;SDS011;12053;48.878;9.632;2023-06-22T05:27:14;11.15;;;8.65;;
23745;SDS011;12053;48.878;9.632;2023-06-22T05:29:59;10.95;;;8.02;;
23745;SDS011;12053;48.878;9.632;2023-06-22T05:32:26;9.93;;;8.63;;
23745;SDS011;12053;48.878;9.632;2023-06-22T05:34:53;10.18;;;9.18;;
23745;SDS011;12053;48.878;9.632;2023-06-22T05:37:20;12.27;;;8.57;;
23745;SDS011;12053;48.878;9.632;2023-06-22T05:39:48;11.45;;;8.05;;
23745;SDS011;12053;48.878;9.632;2023-06-22T05:42:15;13.02;;;8.02;;
23745;SDS011;12053;48.878;9.632;2023-06-22T05:44:42;13.00;;;8.32;;
23745;SDS011;12053;48.878;9.632;2023-06-22T05:47:09;11.82;;;7.45;;
23745;SDS011;12053;48.878;9.632;2023-06-22T05:49:36;12.45;;;8.25;;
23745;SDS011;12053;48.878;9.632;2023-06-22T05:52:04;11.23;;;8.15;;
23745;SDS011;12053;48.878;9.632;2023-06-22T05:54:31;11.50;;;7.45;;
23745;SDS011;12053;48.878;9.632;2023-06-22T05:56:58;9.82;;;7.47;;
23745;SDS011;12053;48.878;9.632;2023-06-22T05:59:25;9.48;;;7.13;;
23745;SDS011;12053;48.878;9.632;2023-06-22T06:01:52;11.18;;;7.28;;
23745;SDS011;12053;48.878;9.632;2023-06-22T06:04:20;8.55;;;6.95;;
23745;SDS011;12053;48.878;9.632;2023-06-22T06:06:47;9.30;;;7.20;;
23745;SDS011;12053;48.878;9.632;2023-06-22T06:09:14;11.65;;;7.18;;
23745;SDS011;12053;48.878;9.632;2023-06-22T06:11:41;9.73;;;6.70;;
23745;SDS011;12053;48.878;9.632;2023-06-22T06:14:09;10.13;;;6.28;;
23745;SDS011;12053;48.878;9.632;2023-06-22T06:16:36;8.88;;;6.47;;
23745;SDS011;12053;48.878;9.632;2023-06-22T06:19:03;7.65;;;6.45;;
23745;SDS011;12053;48.878;9.632;2023-06-22T06:21:30;9.55;;;6.22;;
23745;SDS011;12053;48.878;9.632;2023-06-22T06:23:58;11.27;;;6.88;;
23745;SDS011;12053;48.878;9.632;2023-06-22T06:26:25;7.75;;;5.72;;
23745;SDS011;12053;48.878;9.632;2023-06-22T06:28:56;8.32;;;6.25;;
23745;SDS011;12053;48.878;9.632;2023-06-22T06:31:23;10.73;;;6.28;;
23745;SDS011;12053;48.878;9.632;2023-06-22T06:33:54;7.13;;;5.65;;
23745;SDS011;12053;48.878;9.632;2023-06-22T06:36:21;8.85;;;6.00;;
23745;SDS011;12053;48.878;9.632;2023-06-22T06:38:48;8.88;;;5.28;;
23745;SDS011;12053;48.878;9.632;2023-06-22T06:41:16;7.30;;;5.75;;
23745;SDS011;12053;48.878;9.632;2023-06-22T06:43:43;8.25;;;5.25;;
23745;SDS011;12053;48.878;9.632;2023-06-22T06:46:10;8.50;;;5.05;;
23745;SDS011;12053;48.878;9.632;2023-06-22T06:48:38;10.27;;;5.65;;
23745;SDS011;12053;48.878;9.632;2023-06-22T06:51:06;12.15;;;5.22;;
23745;SDS011;12053;48.878;9.632;2023-06-22T06:53:36;9.93;;;5.50;;
23745;SDS011;12053;48.878;9.632;2023-06-22T06:56:03;9.05;;;5.53;;
23745;SDS011;12053;48.878;9.632;2023-06-22T06:58:31;10.68;;;5.70;;
23745;SDS011;12053;48.878;9.632;2023-06-22T07:00:59;9.40;;;5.20;;
23745;SDS011;12053;48.878;9.632;2023-06-22T07:03:26;7.38;;;5.57;;
23745;SDS011;12053;48.878;9.632;2023-06-22T07:05:53;9.70;;;5.30;;
23745;SDS011;12053;48.878;9.632;2023-06-22T07:08:20;7.03;;;4.88;;
23745;SDS011;12053;48.878;9.632;2023-06-22T07:10:47;12.43;;;5.60;;
23745;SDS011;12053;48.878;9.632;2023-06-22T07:13:15;6.93;;;5.07;;
23745;SDS011;12053;48.878;9.632;2023-06-22T07:15:42;9.65;;;5.15;;
23745;SDS011;12053;48.878;9.632;2023-06-22T07:18:09;8.80;;;5.15;;
23745;SDS011;12053;48.878;9.632;2023-06-22T07:20:36;9.40;;;4.80;;
23745;SDS011;12053;48.878;9.632;2023-06-22T07:23:05;7.15;;;4.72;;
23745;SDS011;12053;48.878;9.632;2023-06-22T07:25:32;9.10;;;4.72;;
23745;SDS011;12053;48.878;9.632;2023-06-22T07:28:03;7.28;;;4.95;;
23745;SDS011;12053;48.878;9.632;2023-06-22T07:30:31;7.72;;;5.07;;
23745;SDS011;12053;48.878;9.632;2023-06-22T07:33:00;10.32;;;4.80;;
23745;SDS011;12053;48.878;9.632;2023-06-22T07:35:30;7.55;;;4.70;;
23745;SDS011;12053;48.878;9.632;2023-06-22T07:37:58;8.57;;;4.78;;
23745;SDS011;12053;48.878;9.632;2023-06-22T07:40:30;14.80;;;4.90;;
23745;SDS011;12053;48.878;9.632;2023-06-22T07:42:58;10.60;;;4.53;;
23745;SDS011;12053;48.878;9.632;2023-06-22T07:45:25;10.02;;;4.72;;
23745;SDS011;12053;48.878;9.632;2023-06-22T07:47:52;7.82;;;5.07;;
23745;SDS011;12053;48.878;9.632;2023-06-22T07:50:20;7.78;;;4.47;;
23745;SDS011;12053;48.878;9.632;2023-06-22T07:52:49;8.15;;;4.30;;
23745;SDS011;12053;48.878;9.632;2023-06-22T07:55:19;9.25;;;4.30;;
23745;SDS011;12053;48.878;9.632;2023-06-22T07:57:47;8.75;;;4.30;;
23745;SDS011;12053;48.878;9.632;2023-06-22T08:00:14;9.38;;;4.28;;
23745;SDS011;12053;48.878;9.632;2023-06-22T08:02:44;9.07;;;4.82;;
23745;SDS011;12053;48.878;9.632;2023-06-22T08:05:13;9.05;;;4.05;;
23745;SDS011;12053;48.878;9.632;2023-06-22T08:07:59;10.38;;;4.45;;
23745;SDS011;12053;48.878;9.632;2023-06-22T08:10:26;6.20;;;3.83;;
23745;SDS011;12053;48.878;9.632;2023-06-22T08:12:53;12.13;;;5.15;;
23745;SDS011;12053;48.878;9.632;2023-06-22T08:15:21;8.07;;;4.18;;
23745;SDS011;12053;48.878;9.632;2023-06-22T08:17:48;7.97;;;4.47;;
23745;SDS011;12053;48.878;9.632;2023-06-22T08:20:15;10.13;;;4.13;;
23745;SDS011;12053;48.878;9.632;2023-06-22T08:22:43;11.82;;;4.38;;
23745;SDS011;12053;48.878;9.632;2023-06-22T08:25:10;8.48;;;3.90;;
23745;SDS011;12053;48.878;9.632;2023-06-22T08:27:39;11.93;;;4.22;;
23745;SDS011;12053;48.878;9.632;2023-06-22T08:30:07;12.07;;;4.28;;
23745;SDS011;12053;48.878;9.632;2023-06-22T08:32:34;9.73;;;4.05;;
23745;SDS011;12053;48.878;9.632;2023-06-22T08:35:01;7.07;;;4.13;;
23745;SDS011;12053;48.878;9.632;2023-06-22T08:37:29;9.20;;;4.10;;
23745;SDS011;12053;48.878;9.632;2023-06-22T08:40:00;12.35;;;4.10;;
23745;SDS011;12053;48.878;9.632;2023-06-22T08:42:27;9.55;;;4.30;;
23745;SDS011;12053;48.878;9.632;2023-06-22T08:44:55;11.00;;;3.50;;
23745;SDS011;12053;48.878;9.632;2023-06-22T08:47:22;11.52;;;4.53;;
23745;SDS011;12053;48.878;9.632;2023-06-22T08:49:49;9.13;;;3.83;;
23745;SDS011;12053;48.878;9.632;2023-06-22T08:52:17;16.95;;;3.88;;
23745;SDS011;12053;48.878;9.632;2023-06-22T08:57:17;12.68;;;4.35;;
23745;SDS011;12053;48.878;9.632;2023-06-22T08:59:44;12.35;;;4.10;;
23745;SDS011;12053;48.878;9.632;2023-06-22T09:02:11;10.77;;;4.68;;
23745;SDS011;12053;48.878;9.632;2023-06-22T09:04:39;13.05;;;4.72;;
23745;SDS011;12053;48.878;9.632;2023-06-22T09:07:06;12.93;;;4.13;;
23745;SDS011;12053;48.878;9.632;2023-06-22T09:09:34;12.40;;;4.90;;
23745;SDS011;12053;48.878;9.632;2023-06-22T09:12:01;6.93;;;4.00;;
23745;SDS011;12053;48.878;9.632;2023-06-22T09:14:28;13.07;;;4.55;;
23745;SDS011;12053;48.878;9.632;2023-06-22T09:16:55;13.77;;;3.78;;
23745;SDS011;12053;48.878;9.632;2023-06-22T09:19:22;10.88;;;4.75;;
23745;SDS011;12053;48.878;9.632;2023-06-22T09:21:49;11.73;;;4.63;;
23745;SDS011;12053;48.878;9.632;2023-06-22T09:24:17;10.85;;;3.90;;
23745;SDS011;12053;48.878;9.632;2023-06-22T09:26:44;12.82;;;4.75;;
23745;SDS011;12053;48.878;9.632;2023-06-22T09:29:11;11.57;;;4.45;;
23745;SDS011;12053;48.878;9.632;2023-06-22T09:31:38;13.35;;;4.10;;
23745;SDS011;12053;48.878;9.632;2023-06-22T09:34:06;10.82;;;4.22;;
23745;SDS011;12053;48.878;9.632;2023-06-22T09:36:33;16.48;;;4.55;;
23745;SDS011;12053;48.878;9.632;2023-06-22T09:39:01;12.25;;;4.70;;
23745;SDS011;12053;48.878;9.632;2023-06-22T09:41:32;11.70;;;4.80;;
23745;SDS011;12053;48.878;9.632;2023-06-22T09:43:59;11.20;;;4.93;;
23745;SDS011;12053;48.878;9.632;2023-06-22T09:46:26;9.68;;;4.53;;
23745;SDS011;12053;48.878;9.632;2023-06-22T09:48:54;9.13;;;4.70;;
23745;SDS011;12053;48.878;9.632;2023-06-22T09:51:23;11.77;;;4.45;;
23745;SDS011;12053;48.878;9.632;2023-06-22T09:53:50;9.57;;;4.75;;
23745;SDS011;12053;48.878;9.632;2023-06-22T09:56:18;12.85;;;4.97;;
23745;SDS011;12053;48.878;9.632;2023-06-22T09:58:45;11.10;;;4.80;;
23745;SDS011;12053;48.878;9.632;2023-06-22T10:01:13;8.02;;;4.38;;
23745;SDS011;12053;48.878;9.632;2023-06-22T10:03:43;11.23;;;4.38;;
23745;SDS011;12053;48.878;9.632;2023-06-22T10:06:11;16.52;;;5.25;;
23745;SDS011;12053;48.878;9.632;2023-06-22T10:08:38;14.10;;;5.38;;
23745;SDS011;12053;48.878;9.632;2023-06-22T10:11:06;14.77;;;4.90;;
23745;SDS011;12053;48.878;9.632;2023-06-22T10:13:34;16.80;;;4.82;;
23745;SDS011;12053;48.878;9.632;2023-06-22T10:16:01;10.48;;;4.78;;
23745;SDS011;12053;48.878;9.632;2023-06-22T10:18:28;12.80;;;4.72;;
23745;SDS011;12053;48.878;9.632;2023-06-22T10:20:56;10.13;;;4.78;;
23745;SDS011;12053;48.878;9.632;2023-06-22T10:23:24;11.15;;;4.90;;
23745;SDS011;12053;48.878;9.632;2023-06-22T10:25:51;16.10;;;5.00;;
23745;SDS011;12053;48.878;9.632;2023-06-22T10:28:18;10.80;;;4.63;;
23745;SDS011;12053;48.878;9.632;2023-06-22T10:30:45;12.45;;;4.82;;
23745;SDS011;12053;48.878;9.632;2023-06-22T10:33:13;7.75;;;5.00;;
23745;SDS011;12053;48.878;9.632;2023-06-22T10:35:40;15.57;;;4.60;;
23745;SDS011;12053;48.878;9.632;2023-06-22T10:38:07;10.23;;;4.60;;
23745;SDS011;12053;48.878;9.632;2023-06-22T10:40:34;16.23;;;5.45;;
23745;SDS011;12053;48.878;9.632;2023-06-22T10:43:01;11.40;;;4.95;;
23745;SDS011;12053;48.878;9.632;2023-06-22T10:45:29;15.95;;;5.70;;
23745;SDS011;12053;48.878;9.632;2023-06-22T10:47:57;13.40;;;5.50;;
23745;SDS011;12053;48.878;9.632;2023-06-22T10:50:25;11.60;;;4.50;;
23745;SDS011;12053;48.878;9.632;2023-06-22T10:52:52;10.18;;;4.93;;
23745;SDS011;12053;48.878;9.632;2023-06-22T10:55:19;14.82;;;5.20;;
23745;SDS011;12053;48.878;9.632;2023-06-22T10:57:46;17.88;;;5.13;;
23745;SDS011;12053;48.878;9.632;2023-06-22T11:00:14;12.18;;;5.75;;
23745;SDS011;12053;48.878;9.632;2023-06-22T11:02:42;18.65;;;5.55;;
23745;SDS011;12053;48.878;9.632;2023-06-22T11:05:10;21.35;;;5.43;;
23745;SDS011;12053;48.878;9.632;2023-06-22T11:07:41;16.15;;;5.38;;
23745;SDS011;12053;48.878;9.632;2023-06-22T11:10:09;12.63;;;5.30;;
23745;SDS011;12053;48.878;9.632;2023-06-22T11:12:37;16.35;;;5.40;;
23745;SDS011;12053;48.878;9.632;2023-06-22T11:15:04;13.90;;;5.20;;
23745;SDS011;12053;48.878;9.632;2023-06-22T11:17:32;16.67;;;5.80;;
23745;SDS011;12053;48.878;9.632;2023-06-22T11:19:59;20.80;;;5.82;;
23745;SDS011;12053;48.878;9.632;2023-06-22T11:22:26;14.18;;;5.47;;
23745;SDS011;12053;48.878;9.632;2023-06-22T11:24:53;17.60;;;4.78;;
23745;SDS011;12053;48.878;9.632;2023-06-22T11:27:21;16.80;;;5.30;;
23745;SDS011;12053;48.878;9.632;2023-06-22T11:29:48;20.75;;;5.20;;
23745;SDS011;12053;48.878;9.632;2023-06-22T11:32:16;17.13;;;5.20;;
23745;SDS011;12053;48.878;9.632;2023-06-22T11:34:43;13.70;;;5.18;;
23745;SDS011;12053;48.878;9.632;2023-06-22T11:37:10;17.48;;;5.13;;
23745;SDS011;12053;48.878;9.632;2023-06-22T11:39:37;13.75;;;5.28;;
23745;SDS011;12053;48.878;9.632;2023-06-22T11:42:13;17.08;;;4.95;;
23745;SDS011;12053;48.878;9.632;2023-06-22T11:44:41;14.27;;;5.57;;
23745;SDS011;12053;48.878;9.632;2023-06-22T11:47:09;16.65;;;5.50;;
23745;SDS011;12053;48.878;9.632;2023-06-22T11:49:36;12.32;;;5.38;;
23745;SDS011;12053;48.878;9.632;2023-06-22T11:52:03;14.45;;;4.70;;
23745;SDS011;12053;48.878;9.632;2023-06-22T11:54:30;15.70;;;5.95;;
23745;SDS011;12053;48.878;9.632;2023-06-22T11:56:58;14.88;;;4.72;;
23745;SDS011;12053;48.878;9.632;2023-06-22T11:59:25;15.95;;;5.28;;
23745;SDS011;12053;48.878;9.632;2023-06-22T12:01:52;16.42;;;5.55;;
23745;SDS011;12053;48.878;9.632;2023-06-22T12:04:20;17.52;;;5.10;;
23745;SDS011;12053;48.878;9.632;2023-06-22T12:06:47;14.80;;;5.43;;
23745;SDS011;12053;48.878;9.632;2023-06-22T12:09:14;14.23;;;5.05;;
23745;SDS011;12053;48.878;9.632;2023-06-22T12:11:41;15.35;;;5.20;;
23745;SDS011;12053;48.878;9.632;2023-06-22T12:14:08;16.52;;;5.40;;
23745;SDS011;12053;48.878;9.632;2023-06-22T12:16:36;13.55;;;5.88;;
23745;SDS011;12053;48.878;9.632;2023-06-22T12:19:04;17.10;;;5.47;;
23745;SDS011;12053;48.878;9.632;2023-06-22T12:21:31;13.65;;;5.90;;
23745;SDS011;12053;48.878;9.632;2023-06-22T12:23:58;16.35;;;6.20;;
23745;SDS011;12053;48.878;9.632;2023-06-22T12:26:25;20.83;;;5.90;;
23745;SDS011;12053;48.878;9.632;2023-06-22T12:28:52;13.18;;;5.63;;
23745;SDS011;12053;48.878;9.632;2023-06-22T12:31:20;17.52;;;6.28;;
23745;SDS011;12053;48.878;9.632;2023-06-22T12:33:47;15.32;;;6.15;;
23745;SDS011;12053;48.878;9.632;2023-06-22T12:36:14;12.02;;;5.82;;
23745;SDS011;12053;48.878;9.632;2023-06-22T12:38:42;16.20;;;6.18;;
23745;SDS011;12053;48.878;9.632;2023-06-22T12:41:10;17.05;;;5.72;;
23745;SDS011;12053;48.878;9.632;2023-06-22T12:43:37;13.85;;;5.97;;
23745;SDS011;12053;48.878;9.632;2023-06-22T12:46:04;18.13;;;6.32;;
23745;SDS011;12053;48.878;9.632;2023-06-22T12:48:31;15.13;;;5.78;;
23745;SDS011;12053;48.878;9.632;2023-06-22T12:50:58;13.63;;;5.25;;
23745;SDS011;12053;48.878;9.632;2023-06-22T12:53:26;15.25;;;5.60;;
23745;SDS011;12053;48.878;9.632;2023-06-22T12:55:53;17.25;;;6.03;;
23745;SDS011;12053;48.878;9.632;2023-06-22T12:58:20;13.50;;;5.95;;
23745;SDS011;12053;48.878;9.632;2023-06-22T13:00:48;18.40;;;5.97;;
23745;SDS011;12053;48.878;9.632;2023-06-22T13:03:15;21.88;;;6.78;;
23745;SDS011;12053;48.878;9.632;2023-06-22T13:05:43;15.52;;;6.13;;
23745;SDS011;12053;48.878;9.632;2023-06-22T13:08:10;11.88;;;5.72;;
23745;SDS011;12053;48.878;9.632;2023-06-22T13:10:38;16.38;;;6.53;;
23745;SDS011;12053;48.878;9.632;2023-06-22T13:13:05;16.20;;;6.45;;
23745;SDS011;12053;48.878;9.632;2023-06-22T13:15:32;27.55;;;6.45;;
23745;SDS011;12053;48.878;9.632;2023-06-22T13:18:00;14.65;;;5.88;;
23745;SDS011;12053;48.878;9.632;2023-06-22T13:20:28;20.52;;;6.60;;
23745;SDS011;12053;48.878;9.632;2023-06-22T13:22:55;15.95;;;5.93;;
23745;SDS011;12053;48.878;9.632;2023-06-22T13:25:23;24.52;;;5.93;;
23745;SDS011;12053;48.878;9.632;2023-06-22T13:27:53;17.45;;;6.60;;
23745;SDS011;12053;48.878;9.632;2023-06-22T13:30:21;13.38;;;6.03;;
23745;SDS011;12053;48.878;9.632;2023-06-22T13:32:48;15.63;;;5.90;;
23745;SDS011;12053;48.878;9.632;2023-06-22T13:35:15;17.55;;;6.10;;
23745;SDS011;12053;48.878;9.632;2023-06-22T13:37:42;14.25;;;5.78;;
23745;SDS011;12053;48.878;9.632;2023-06-22T13:40:10;15.57;;;5.82;;
23745;SDS011;12053;48.878;9.632;2023-06-22T13:42:37;16.75;;;6.25;;
23745;SDS011;12053;48.878;9.632;2023-06-22T13:45:22;16.42;;;5.97;;
23745;SDS011;12053;48.878;9.632;2023-06-22T13:47:49;16.00;;;5.95;;
23745;SDS011;12053;48.878;9.632;2023-06-22T13:50:34;18.70;;;6.20;;
23745;SDS011;12053;48.878;9.632;2023-06-22T13:53:01;14.40;;;5.63;;
23745;SDS011;12053;48.878;9.632;2023-06-22T13:55:28;15.88;;;5.65;;
23745;SDS011;12053;48.878;9.632;2023-06-22T13:57:57;15.85;;;5.63;;
23745;SDS011;12053;48.878;9.632;2023-06-22T14:00:24;16.30;;;5.80;;
23745;SDS011;12053;48.878;9.632;2023-06-22T14:02:51;13.02;;;5.50;;
23745;SDS011;12053;48.878;9.632;2023-06-22T14:05:19;15.02;;;5.82;;
23745;SDS011;12053;48.878;9.632;2023-06-22T14:07:46;20.15;;;5.70;;
23745;SDS011;12053;48.878;9.632;2023-06-22T14:10:13;14.57;;;5.68;;
23745;SDS011;12053;48.878;9.632;2023-06-22T14:12:40;18.02;;;5.90;;
23745;SDS011;12053;48.878;9.632;2023-06-22T14:15:08;19.23;;;6.07;;
23745;SDS011;12053;48.878;9.632;2023-06-22T14:17:35;13.25;;;5.30;;
23745;SDS011;12053;48.878;9.632;2023-06-22T14:20:02;17.77;;;6.82;;
23745;SDS011;12053;48.878;9.632;2023-06-22T14:22:31;20.90;;;7.03;;
23745;SDS011;12053;48.878;9.632;2023-06-22T14:24:59;14.73;;;6.60;;
23745;SDS011;12053;48.878;9.632;2023-06-22T14:27:26;18.77;;;6.70;;
23745;SDS011;12053;48.878;9.632;2023-06-22T14:29:53;20.35;;;7.40;;
23745;SDS011;12053;48.878;9.632;2023-06-22T14:32:20;17.08;;;6.05;;
23745;SDS011;12053;48.878;9.632;2023-06-22T14:34:48;15.27;;;5.57;;
23745;SDS011;12053;48.878;9.632;2023-06-22T14:37:16;18.63;;;6.20;;
23745;SDS011;12053;48.878;9.632;2023-06-22T14:39:43;19.20;;;6.30;;
23745;SDS011;12053;48.878;9.632;2023-06-22T14:42:10;15.40;;;5.93;;
23745;SDS011;12053;48.878;9.632;2023-06-22T14:44:37;14.25;;;5.45;;